Edmonton Namao Alta., Canada
Current Conditions -  °F | °C
As of 1:23 PM on Friday 31 Oct 2014 (Local Time) from CYXD Reporting Station
Scattered Clouds Scattered Clouds  
Wind Chill: 41°   Ceiling: Unl
Heat Index: 41°   Visibility: 9mi
Dew Point: 36°   Wind: 3mph
Humidity: 81%   Direction: 300°WNW
Pressure: 29.62"   Gusts: NA
Location:  53.61°N, 113.46°W
Report Text: CYXD 311923Z AUTO 30003KT 9SM FEW010 FEW061 FEW072 SCT090 05/02 A2962
Loading
Personal Weather Stations






























Interactive Weather Map
Tropical Storm Tracking
New forecast layout! Learn more

10-Day Weather Forecast

Advertisements
Track Severe Weather on mobile